createdAt,value
2018-11-25T00:01:00.060Z,44.23
2018-11-25T00:03:30.980Z,45.47
2018-11-25T00:06:01.585Z,44.30
2018-11-25T00:08:32.233Z,42.87
2018-11-25T00:11:03.925Z,46.30
2018-11-25T00:13:34.023Z,46.87
2018-11-25T00:16:04.295Z,45.47
2018-11-25T00:18:35.757Z,44.27
2018-11-25T00:21:07.097Z,44.73
2018-11-25T00:23:37.427Z,47.47
2018-11-25T00:26:08.211Z,45.63
2018-11-25T00:28:39.408Z,45.23
2018-11-25T00:31:10.138Z,46.97
2018-11-25T00:33:41.374Z,45.57
2018-11-25T00:36:12.295Z,46.33
2018-11-25T00:38:42.405Z,45.40
2018-11-25T00:41:13.717Z,46.13
2018-11-25T00:43:44.331Z,46.47
2018-11-25T00:46:15.001Z,47.43
2018-11-25T00:48:46.075Z,45.50
2018-11-25T00:51:16.778Z,45.90
2018-11-25T00:53:47.441Z,48.63
2018-11-25T00:56:18.217Z,47.37
2018-11-25T00:58:48.242Z,47.43
2018-11-25T01:01:20.195Z,48.00
2018-11-25T01:03:51.346Z,45.13
2018-11-25T01:06:22.049Z,45.63
2018-11-25T01:08:52.869Z,45.83
2018-11-25T01:11:23.536Z,45.30
2018-11-25T01:13:54.214Z,46.03
2018-11-25T01:16:25.073Z,44.67
2018-11-25T01:18:55.850Z,43.90
2018-11-25T01:21:26.681Z,44.00
2018-11-25T01:23:58.455Z,45.10
2018-11-25T01:26:29.481Z,42.83
2018-11-25T01:29:00.419Z,42.17
2018-11-25T01:31:31.271Z,44.83
2018-11-25T01:34:02.289Z,44.07
2018-11-25T01:36:32.448Z,41.77
2018-11-25T01:39:03.262Z,42.70
2018-11-25T01:41:34.069Z,43.60
2018-11-25T01:44:04.830Z,43.93
2018-11-25T01:46:35.172Z,44.67
2018-11-25T01:49:06.183Z,43.47
2018-11-25T01:51:36.640Z,42.63
2018-11-25T01:54:07.693Z,45.33
2018-11-25T01:56:37.606Z,42.27
2018-11-25T01:59:08.398Z,44.53
2018-11-25T02:01:39.104Z,45.23
2018-11-25T02:04:09.790Z,42.87
2018-11-25T02:06:40.611Z,45.33
2018-11-25T02:09:11.981Z,46.10
2018-11-25T02:11:42.763Z,43.37
2018-11-25T02:14:13.712Z,44.27
2018-11-25T02:16:43.927Z,45.00
2018-11-25T02:19:14.791Z,45.13
2018-11-25T02:21:45.475Z,44.60
2018-11-25T02:24:16.184Z,42.83
2018-11-25T02:26:46.918Z,42.60
2018-11-25T02:29:17.758Z,42.23
2018-11-25T02:31:48.121Z,44.83
2018-11-25T02:34:25.406Z,44.27
2018-11-25T02:36:56.196Z,44.33
2018-11-25T02:39:26.876Z,43.87
2018-11-25T02:41:57.547Z,43.43
2018-11-25T02:44:28.043Z,45.97
2018-11-25T02:46:58.619Z,44.17
2018-11-25T02:49:29.282Z,43.67
2018-11-25T02:51:59.951Z,44.30
2018-11-25T02:54:30.754Z,43.23
2018-11-25T02:57:01.478Z,45.33
2018-11-25T02:59:32.730Z,43.43
2018-11-25T03:02:03.502Z,44.53
2018-11-25T03:04:34.307Z,43.33
2018-11-25T03:07:05.028Z,45.73
2018-11-25T03:09:36.456Z,43.13
2018-11-25T03:12:07.554Z,44.90
2018-11-25T03:14:38.534Z,45.47
2018-11-25T03:17:09.485Z,45.17
2018-11-25T03:19:40.176Z,42.77
2018-11-25T03:22:11.243Z,42.93
2018-11-25T03:24:42.027Z,42.43
2018-11-25T03:27:12.936Z,42.70
2018-11-25T03:29:43.699Z,43.03
2018-11-25T03:32:14.418Z,41.43
2018-11-25T03:34:45.226Z,43.07
2018-11-25T03:37:15.744Z,43.70
2018-11-25T03:39:46.006Z,42.83
2018-11-25T03:42:16.596Z,45.30
2018-11-25T03:44:47.435Z,44.43
2018-11-25T03:47:18.201Z,44.03
2018-11-25T03:49:48.260Z,41.30
2018-11-25T03:52:18.926Z,43.63
2018-11-25T03:54:49.759Z,42.63
2018-11-25T03:57:20.444Z,44.70
2018-11-25T03:59:51.228Z,44.07
2018-11-25T04:02:22.117Z,44.73
2018-11-25T04:04:52.282Z,42.87
2018-11-25T04:07:22.708Z,43.67
2018-11-25T04:09:53.596Z,45.33
2018-11-25T04:12:24.636Z,43.97
2018-11-25T04:14:55.247Z,43.57
2018-11-25T04:17:26.153Z,43.50
2018-11-25T04:19:56.216Z,43.03
2018-11-25T04:22:26.980Z,43.60
2018-11-25T04:24:58.417Z,41.87
2018-11-25T04:27:29.941Z,43.97
2018-11-25T04:30:00.374Z,45.27
2018-11-25T04:32:31.237Z,43.73
2018-11-25T04:35:02.177Z,42.97
2018-11-25T04:37:33.671Z,43.37
2018-11-25T04:40:04.570Z,40.60
2018-11-25T04:42:35.433Z,41.33
2018-11-25T04:45:06.656Z,43.40
2018-11-25T04:47:37.372Z,42.87
2018-11-25T04:50:11.161Z,41.10
2018-11-25T04:52:42.712Z,40.20
2018-11-25T04:55:13.672Z,45.17
2018-11-25T04:57:49.906Z,43.13
2018-11-25T05:00:21.150Z,41.87
2018-11-25T05:02:52.140Z,42.90
2018-11-25T05:05:23.187Z,40.80
2018-11-25T05:07:54.292Z,89.50
2018-11-25T05:10:25.278Z,45.83
2018-11-25T05:12:55.943Z,39.80
2018-11-25T05:15:27.226Z,39.93
2018-11-25T05:17:58.551Z,39.00
2018-11-25T05:20:29.530Z,38.57
2018-11-25T05:23:00.437Z,40.23
2018-11-25T05:25:31.682Z,38.93
2018-11-25T05:28:03.150Z,39.50
2018-11-25T05:30:34.812Z,42.93
2018-11-25T05:33:06.176Z,40.80
2018-11-25T05:35:37.032Z,41.67
2018-11-25T05:38:07.332Z,40.43
2018-11-25T05:40:39.643Z,39.13
2018-11-25T05:43:10.715Z,41.37
2018-11-25T05:45:42.380Z,42.13
2018-11-25T05:48:13.558Z,42.33
2018-11-25T05:50:45.474Z,41.03
2018-11-25T05:53:16.985Z,42.37
2018-11-25T05:55:48.351Z,42.63
2018-11-25T05:58:19.640Z,42.77
2018-11-25T06:00:50.863Z,43.00
2018-11-25T06:03:21.891Z,40.23
2018-11-25T06:05:52.343Z,42.53
2018-11-25T06:08:22.823Z,43.07
2018-11-25T06:10:52.700Z,42.87
2018-11-25T06:13:22.701Z,42.43
2018-11-25T06:15:52.611Z,42.27
2018-11-25T06:18:22.724Z,43.43
2018-11-25T06:20:52.717Z,42.73
2018-11-25T06:23:22.780Z,45.40
2018-11-25T06:25:52.875Z,43.10
2018-11-25T06:28:22.890Z,43.43
2018-11-25T06:30:52.704Z,45.43
2018-11-25T06:33:22.465Z,47.63
2018-11-25T06:35:52.489Z,57.50
2018-11-25T06:38:22.473Z,54.07
2018-11-25T06:40:52.364Z,60.17
2018-11-25T06:43:22.611Z,63.30
2018-11-25T06:45:52.719Z,67.83
2018-11-25T06:48:22.708Z,67.20
2018-11-25T06:50:52.532Z,66.83
2018-11-25T06:53:22.521Z,66.20
2018-11-25T06:55:52.676Z,65.43
2018-11-25T06:58:22.591Z,63.33
2018-11-25T07:00:52.746Z,61.70
2018-11-25T07:03:22.788Z,60.30
2018-11-25T07:05:52.967Z,57.37
2018-11-25T07:08:22.936Z,54.73
2018-11-25T07:10:53.214Z,54.50
2018-11-25T07:13:22.974Z,55.87
2018-11-25T07:15:52.825Z,57.53
2018-11-25T07:18:22.733Z,55.03
2018-11-25T07:20:52.682Z,53.47
2018-11-25T07:23:22.695Z,53.83
2018-11-25T07:25:52.687Z,39.37
2018-11-25T07:28:22.695Z,41.20
2018-11-25T07:30:52.582Z,44.00
2018-11-25T07:33:22.580Z,44.13
2018-11-25T07:35:52.533Z,46.13
2018-11-25T07:38:22.621Z,52.27
2018-11-25T07:40:52.401Z,54.00
2018-11-25T07:43:22.346Z,52.80
2018-11-25T07:45:52.272Z,53.03
2018-11-25T07:48:22.336Z,52.20
2018-11-25T07:50:52.228Z,50.10
2018-11-25T07:53:22.065Z,50.77
2018-11-25T07:55:52.127Z,46.73
2018-11-25T07:58:22.134Z,49.00
2018-11-25T08:00:52.143Z,47.63
2018-11-25T08:03:22.236Z,46.67
2018-11-25T08:05:52.231Z,50.20
2018-11-25T08:08:22.299Z,47.97
2018-11-25T08:10:52.145Z,48.17
2018-11-25T08:13:21.993Z,46.13
2018-11-25T08:15:51.951Z,49.50
2018-11-25T08:18:21.966Z,46.43
2018-11-25T08:20:52.019Z,46.50
2018-11-25T08:23:22.093Z,45.63
2018-11-25T08:25:52.032Z,42.93
2018-11-25T08:28:22.222Z,43.80
2018-11-25T08:30:52.149Z,44.53
2018-11-25T08:33:22.033Z,43.47
2018-11-25T08:35:52.114Z,45.03
2018-11-25T08:38:22.178Z,47.47
2018-11-25T08:40:51.916Z,47.67
2018-11-25T08:43:21.830Z,48.93
2018-11-25T08:45:51.865Z,47.53
2018-11-25T08:48:21.866Z,44.33
2018-11-25T08:50:51.651Z,49.50
2018-11-25T08:53:21.390Z,48.13
2018-11-25T08:55:51.367Z,44.87
2018-11-25T08:58:21.216Z,45.00
2018-11-25T09:00:51.192Z,47.93
2018-11-25T09:03:21.098Z,46.63
2018-11-25T09:05:51.026Z,45.77
2018-11-25T09:08:21.032Z,43.70
2018-11-25T09:10:50.818Z,42.13
2018-11-25T09:13:20.610Z,44.50
2018-11-25T09:15:50.665Z,44.40
2018-11-25T09:18:20.592Z,44.67
2018-11-25T09:20:50.473Z,46.63
2018-11-25T09:23:20.487Z,46.87
2018-11-25T09:25:50.353Z,48.40
2018-11-25T09:28:20.376Z,45.80
2018-11-25T09:30:50.086Z,47.97
2018-11-25T09:33:20.858Z,42.30
2018-11-25T09:35:50.786Z,48.40
2018-11-25T09:38:20.732Z,50.37
2018-11-25T09:40:50.600Z,47.20
2018-11-25T09:43:20.444Z,44.70
2018-11-25T09:45:50.513Z,44.87
2018-11-25T09:48:20.451Z,48.30
2018-11-25T09:50:50.215Z,47.87
2018-11-25T09:53:19.992Z,51.00
2018-11-25T09:55:49.886Z,52.03
2018-11-25T09:58:25.347Z,48.87
2018-11-25T10:00:49.897Z,49.47
2018-11-25T10:03:19.946Z,45.93
2018-11-25T10:05:49.910Z,49.37
2018-11-25T10:08:19.908Z,49.37
2018-11-25T10:10:52.716Z,46.87
2018-11-25T10:13:19.878Z,51.87
2018-11-25T10:15:49.866Z,51.67
2018-11-25T10:18:19.768Z,53.87
2018-11-25T10:20:49.666Z,52.57
2018-11-25T10:23:19.626Z,52.57
2018-11-25T10:25:49.495Z,50.43
2018-11-25T10:28:19.620Z,50.17
2018-11-25T10:30:49.398Z,46.30
2018-11-25T10:33:19.256Z,49.50
2018-11-25T10:35:49.241Z,49.33
2018-11-25T10:38:19.166Z,51.37
2018-11-25T10:40:48.991Z,45.53
2018-11-25T10:43:19.060Z,51.00
2018-11-25T10:45:49.139Z,48.40
2018-11-25T10:48:19.106Z,48.07
2018-11-25T10:50:51.207Z,47.53
2018-11-25T10:53:18.785Z,51.97
2018-11-25T10:55:48.908Z,51.53
2018-11-25T10:58:18.803Z,48.60
2018-11-25T11:00:54.722Z,48.20
2018-11-25T11:03:30.096Z,45.97
2018-11-25T11:06:05.153Z,51.07
2018-11-25T11:08:35.101Z,51.17
2018-11-25T11:11:05.303Z,50.70
2018-11-25T11:13:35.147Z,46.87
2018-11-25T11:16:05.245Z,46.20
2018-11-25T11:18:35.183Z,50.20
2018-11-25T11:21:05.321Z,45.67
2018-11-25T11:23:35.311Z,45.53
2018-11-25T11:26:07.029Z,44.17
2018-11-25T11:28:35.323Z,45.17
2018-11-25T11:31:05.263Z,46.10
2018-11-25T11:33:35.174Z,43.93
2018-11-25T11:36:05.297Z,41.60
2018-11-25T11:38:35.437Z,42.90
2018-11-25T11:41:05.426Z,41.73
2018-11-25T11:43:35.543Z,44.13
2018-11-25T11:46:05.677Z,43.47
2018-11-25T11:48:35.905Z,45.63
2018-11-25T11:51:05.799Z,44.83
2018-11-25T11:53:35.584Z,41.57
2018-11-25T11:56:05.769Z,46.87
2018-11-25T11:58:35.702Z,48.23
2018-11-25T12:01:06.209Z,46.40
2018-11-25T12:03:36.143Z,47.07
2018-11-25T12:06:06.091Z,50.57
2018-11-25T12:08:35.974Z,48.17
2018-11-25T12:11:06.218Z,49.10
2018-11-25T12:13:36.059Z,51.47
2018-11-25T12:16:06.094Z,47.33
2018-11-25T12:18:36.012Z,48.37
2018-11-25T12:21:06.168Z,46.37
2018-11-25T12:23:36.066Z,48.07
2018-11-25T12:26:06.191Z,47.40
2018-11-25T12:28:36.121Z,48.43
2018-11-25T12:31:07.069Z,47.07
2018-11-25T12:33:35.936Z,47.27
2018-11-25T12:36:06.065Z,45.80
2018-11-25T12:38:36.018Z,46.03
2018-11-25T12:41:05.887Z,42.63
2018-11-25T12:43:35.793Z,45.97
2018-11-25T12:46:05.929Z,45.77
2018-11-25T12:48:35.819Z,45.93
2018-11-25T12:51:06.074Z,44.63
2018-11-25T12:53:35.849Z,45.30
2018-11-25T12:56:06.188Z,47.97
2018-11-25T12:58:36.139Z,45.27
2018-11-25T13:01:12.631Z,45.23
2018-11-25T13:03:42.527Z,46.27
2018-11-25T13:06:12.515Z,46.97
2018-11-25T13:08:42.370Z,49.93
2018-11-25T13:11:12.197Z,51.87
2018-11-25T13:13:41.943Z,50.67
2018-11-25T13:16:12.014Z,51.17
2018-11-25T13:18:41.923Z,51.00
2018-11-25T13:21:11.849Z,53.97
2018-11-25T13:23:43.155Z,52.93
2018-11-25T13:26:11.902Z,52.00
2018-11-25T13:28:41.910Z,50.10
2018-11-25T13:31:23.559Z,49.37
2018-11-25T13:33:53.447Z,52.27
2018-11-25T13:36:23.411Z,55.80
2018-11-25T13:38:53.346Z,56.23
2018-11-25T13:41:23.148Z,56.70
2018-11-25T13:43:53.131Z,55.43
2018-11-25T13:46:23.111Z,56.97
2018-11-25T13:48:53.278Z,53.63
2018-11-25T13:51:23.413Z,55.63
2018-11-25T13:53:53.301Z,54.63
2018-11-25T13:56:23.207Z,53.33
2018-11-25T13:58:53.317Z,54.03
2018-11-25T14:01:23.298Z,53.13
2018-11-25T14:03:53.207Z,54.43
2018-11-25T14:06:23.206Z,53.57
2018-11-25T14:08:54.792Z,54.20
2018-11-25T14:11:24.694Z,55.53
2018-11-25T14:13:54.452Z,55.27
2018-11-25T14:16:24.346Z,57.03
2018-11-25T14:18:54.361Z,56.93
2018-11-25T14:21:24.342Z,56.07
2018-11-25T14:23:54.304Z,54.63
2018-11-25T14:26:26.876Z,57.17
2018-11-25T14:28:56.961Z,55.57
2018-11-25T14:31:26.844Z,56.23
2018-11-25T14:33:56.708Z,58.60
2018-11-25T14:36:26.856Z,58.10
2018-11-25T14:38:57.072Z,56.70
2018-11-25T14:41:27.009Z,55.90
2018-11-25T14:43:57.017Z,57.33
2018-11-25T14:46:27.139Z,56.87
2018-11-25T14:48:57.188Z,57.13
2018-11-25T14:51:26.999Z,55.67
2018-11-25T14:53:57.243Z,57.17
2018-11-25T14:56:27.301Z,54.30
2018-11-25T14:58:57.444Z,55.00
2018-11-25T15:01:27.424Z,52.10
2018-11-25T15:03:58.376Z,54.37
2018-11-25T15:06:29.453Z,62.55
2018-11-25T15:08:58.511Z,51.27
2018-11-25T15:11:28.286Z,52.07
2018-11-25T15:13:58.085Z,50.13
2018-11-25T15:16:28.004Z,52.27
2018-11-25T15:18:57.954Z,51.10
2018-11-25T15:21:27.857Z,50.43
2018-11-25T15:23:57.887Z,51.33
2018-11-25T15:26:27.905Z,78.23
2018-11-25T15:28:58.110Z,53.33
2018-11-25T15:31:28.141Z,51.17
2018-11-25T15:33:58.270Z,48.50
2018-11-25T15:36:28.311Z,49.90
2018-11-25T15:38:58.626Z,50.47
2018-11-25T15:41:28.526Z,51.33
2018-11-25T15:43:58.675Z,51.43
2018-11-25T15:46:28.835Z,51.47
2018-11-25T15:48:58.964Z,43.73
2018-11-25T15:51:28.878Z,50.93
2018-11-25T15:53:59.010Z,49.67
2018-11-25T15:56:29.129Z,46.10
2018-11-25T15:58:59.212Z,47.80
2018-11-25T16:01:29.308Z,50.30
2018-11-25T16:03:59.290Z,48.40
2018-11-25T16:06:32.592Z,50.10
2018-11-25T16:09:02.449Z,49.40
2018-11-25T16:11:32.274Z,55.53
2018-11-25T16:14:02.173Z,54.57
2018-11-25T16:16:32.209Z,52.60
2018-11-25T16:19:02.231Z,56.60
2018-11-25T16:21:32.326Z,62.50
2018-11-25T16:24:02.360Z,63.13
2018-11-25T16:26:34.612Z,62.80
2018-11-25T16:29:11.944Z,66.70
2018-11-25T16:31:41.882Z,64.37
2018-11-25T16:34:11.882Z,71.27
2018-11-25T16:36:41.901Z,65.30
2018-11-25T16:39:12.122Z,68.03
2018-11-25T16:41:41.937Z,66.77
2018-11-25T16:44:11.764Z,64.80
2018-11-25T16:46:41.801Z,63.30
2018-11-25T16:49:11.856Z,58.33
2018-11-25T16:51:41.695Z,55.37
2018-11-25T16:54:12.142Z,54.90
2018-11-25T16:56:42.139Z,54.53
2018-11-25T16:59:12.144Z,54.53
2018-11-25T17:01:42.074Z,53.47
2018-11-25T17:04:12.103Z,54.90
2018-11-25T17:06:43.564Z,55.17
2018-11-25T17:09:14.077Z,55.90
2018-11-25T17:11:43.855Z,55.97
2018-11-25T17:14:13.618Z,58.17
2018-11-25T17:16:43.654Z,56.47
2018-11-25T17:19:13.738Z,56.97
2018-11-25T17:21:43.821Z,57.07
2018-11-25T17:24:13.802Z,54.50
2018-11-25T17:26:43.822Z,54.30
2018-11-25T17:29:14.896Z,56.77
2018-11-25T17:31:44.644Z,55.10
2018-11-25T17:34:15.251Z,57.07
2018-11-25T17:36:45.338Z,57.97
2018-11-25T17:39:15.486Z,60.73
2018-11-25T17:41:45.362Z,63.70
2018-11-25T17:44:15.481Z,68.67
2018-11-25T17:46:45.332Z,73.40
2018-11-25T17:49:15.303Z,75.57
2018-11-25T17:51:45.143Z,72.10
2018-11-25T17:54:15.129Z,73.60
2018-11-25T17:56:45.012Z,70.43
2018-11-25T17:59:16.609Z,62.27
2018-11-25T18:01:46.507Z,56.63
2018-11-25T18:04:16.514Z,56.77
2018-11-25T18:06:46.549Z,57.07
2018-11-25T18:09:16.518Z,58.60
2018-11-25T18:11:46.277Z,59.60
2018-11-25T18:14:16.104Z,72.97
2018-11-25T18:16:46.076Z,67.10
2018-11-25T18:19:19.518Z,64.20
2018-11-25T18:21:51.495Z,61.27
2018-11-25T18:24:21.639Z,60.97
2018-11-25T18:26:51.622Z,61.23
2018-11-25T18:29:21.522Z,66.03
2018-11-25T18:31:51.543Z,64.23
2018-11-25T18:34:21.817Z,66.57
2018-11-25T18:36:51.756Z,65.37
2018-11-25T18:39:21.814Z,63.80
2018-11-25T18:41:51.862Z,63.10
2018-11-25T18:44:21.886Z,61.13
2018-11-25T18:46:51.943Z,62.83
2018-11-25T18:49:22.415Z,65.60
2018-11-25T18:51:52.262Z,66.10
2018-11-25T18:54:22.177Z,63.63
2018-11-25T18:56:52.214Z,67.33
2018-11-25T18:59:22.306Z,63.77
2018-11-25T19:02:02.828Z,67.03
2018-11-25T19:04:32.981Z,66.80
2018-11-25T19:07:03.044Z,69.33
2018-11-25T19:09:32.894Z,66.90
2018-11-25T19:12:02.742Z,68.73
2018-11-25T19:14:32.489Z,70.07
2018-11-25T19:17:02.340Z,70.37
2018-11-25T19:19:32.358Z,69.83
2018-11-25T19:22:02.269Z,67.90
2018-11-25T19:24:32.380Z,67.13
2018-11-25T19:27:02.446Z,68.03
2018-11-25T19:29:32.283Z,69.97
2018-11-25T19:32:02.496Z,70.60
2018-11-25T19:34:32.877Z,67.43
2018-11-25T19:37:03.633Z,65.17
2018-11-25T19:39:33.857Z,65.30
2018-11-25T19:42:03.809Z,66.93
2018-11-25T19:44:33.970Z,68.17
2018-11-25T19:47:04.241Z,69.53
2018-11-25T19:49:34.076Z,64.53
2018-11-25T19:52:03.926Z,65.30
2018-11-25T19:54:34.046Z,64.47
2018-11-25T19:57:04.211Z,64.10
2018-11-25T19:59:34.337Z,62.27
2018-11-25T20:02:04.381Z,63.23
2018-11-25T20:04:34.355Z,63.03
2018-11-25T20:07:04.599Z,62.67
2018-11-25T20:09:34.411Z,61.23
2018-11-25T20:12:04.310Z,62.87
2018-11-25T20:14:34.177Z,60.47
2018-11-25T20:17:09.315Z,62.40
2018-11-25T20:19:39.439Z,58.93
2018-11-25T20:22:14.386Z,55.10
2018-11-25T20:24:44.493Z,54.97
2018-11-25T20:27:19.800Z,54.10
2018-11-25T20:29:49.582Z,56.57
2018-11-25T20:32:24.739Z,58.47
2018-11-25T20:34:54.884Z,52.80
2018-11-25T20:37:26.985Z,52.63
2018-11-25T20:39:55.474Z,49.90
2018-11-25T20:42:25.392Z,54.63
2018-11-25T20:44:55.532Z,53.90
2018-11-25T20:47:25.668Z,51.87
2018-11-25T20:49:55.499Z,51.10
2018-11-25T20:52:30.489Z,51.90
2018-11-25T20:55:00.599Z,51.33
2018-11-25T20:57:30.714Z,51.07
2018-11-25T21:00:00.721Z,54.07
2018-11-25T21:02:30.956Z,54.10
2018-11-25T21:05:01.005Z,58.30
2018-11-25T21:07:31.011Z,60.63
2018-11-25T21:10:00.840Z,59.67
2018-11-25T21:12:30.608Z,60.80
2018-11-25T21:15:00.841Z,61.03
2018-11-25T21:17:30.846Z,62.07
2018-11-25T21:20:00.933Z,64.47
2018-11-25T21:22:31.004Z,63.73
2018-11-25T21:25:01.116Z,63.97
2018-11-25T21:27:31.241Z,62.33
2018-11-25T21:30:01.115Z,62.13
2018-11-25T21:32:30.936Z,62.33
2018-11-25T21:35:01.031Z,59.53
2018-11-25T21:37:30.968Z,61.27
2018-11-25T21:40:00.979Z,59.90
2018-11-25T21:42:30.748Z,61.43
2018-11-25T21:45:00.734Z,59.00
2018-11-25T21:47:30.723Z,61.23
2018-11-25T21:50:00.493Z,60.33
2018-11-25T21:52:30.344Z,62.43
2018-11-25T21:55:00.515Z,61.17
2018-11-25T21:57:30.453Z,59.90
2018-11-25T22:00:00.535Z,62.13
2018-11-25T22:02:30.637Z,59.40
2018-11-25T22:05:00.677Z,58.27
2018-11-25T22:07:30.608Z,61.63
2018-11-25T22:10:00.424Z,64.00
2018-11-25T22:12:30.232Z,62.80
2018-11-25T22:15:00.103Z,64.27
2018-11-25T22:17:30.169Z,59.40
2018-11-25T22:20:00.246Z,67.03
2018-11-25T22:22:30.400Z,64.67
2018-11-25T22:25:00.364Z,70.43
2018-11-25T22:27:30.424Z,70.97
2018-11-25T22:30:00.240Z,68.97
2018-11-25T22:32:30.114Z,67.37
2018-11-25T22:35:00.075Z,69.77
2018-11-25T22:37:30.126Z,70.83
2018-11-25T22:40:00.128Z,70.70
2018-11-25T22:42:29.958Z,70.33
2018-11-25T22:44:59.973Z,71.10
2018-11-25T22:47:30.069Z,70.87
2018-11-25T22:49:59.803Z,69.90
2018-11-25T22:52:29.624Z,74.13
2018-11-25T22:54:59.696Z,74.07
2018-11-25T22:57:29.706Z,69.40
2018-11-25T22:59:59.677Z,70.17
2018-11-25T23:02:29.654Z,67.70
2018-11-25T23:05:10.495Z,70.70
2018-11-25T23:07:40.474Z,72.10
2018-11-25T23:10:10.268Z,70.73
2018-11-25T23:12:40.091Z,73.70
2018-11-25T23:15:09.956Z,72.17
2018-11-25T23:17:39.885Z,69.00
2018-11-25T23:20:09.912Z,72.30
2018-11-25T23:22:39.862Z,71.63
2018-11-25T23:25:09.901Z,72.37
2018-11-25T23:27:39.978Z,74.47
2018-11-25T23:30:10.928Z,75.50
2018-11-25T23:32:40.796Z,76.07
2018-11-25T23:35:12.651Z,73.83
2018-11-25T23:37:42.657Z,75.17
2018-11-25T23:40:12.722Z,74.87
2018-11-25T23:42:42.588Z,73.97
2018-11-25T23:45:13.793Z,75.93
2018-11-25T23:47:43.913Z,73.60
2018-11-25T23:50:15.283Z,73.43
2018-11-25T23:52:46.503Z,75.10
2018-11-25T23:55:16.974Z,70.90
2018-11-25T23:57:46.923Z,69.30
